createdAt,value
2019-06-10T00:00:27.049Z,67.27
2019-06-10T00:03:00.347Z,67.70
2019-06-10T00:05:30.501Z,67.50
2019-06-10T00:08:03.836Z,67.28
2019-06-10T00:10:31.641Z,66.96
2019-06-10T00:13:02.166Z,66.92
2019-06-10T00:15:31.387Z,67.03
2019-06-10T00:18:18.676Z,67.14
2019-06-10T00:20:33.719Z,66.06
2019-06-10T00:23:03.492Z,66.76
2019-06-10T00:25:33.253Z,66.56
2019-06-10T00:28:05.808Z,66.92
2019-06-10T00:30:34.559Z,66.87
2019-06-10T00:33:06.076Z,65.13
2019-06-10T00:35:34.162Z,66.03
2019-06-10T00:38:07.303Z,65.83
2019-06-10T00:40:35.207Z,65.50
2019-06-10T00:43:05.710Z,66.09
2019-06-10T00:45:37.177Z,65.91
2019-06-10T00:48:15.820Z,65.83
2019-06-10T00:50:35.731Z,65.93
2019-06-10T00:53:05.816Z,65.74
2019-06-10T00:55:34.292Z,64.91
2019-06-10T00:58:04.062Z,63.96
2019-06-10T01:00:32.561Z,64.91
2019-06-10T01:03:02.341Z,64.95
2019-06-10T01:05:31.742Z,64.85
2019-06-10T01:08:01.345Z,64.42
2019-06-10T01:10:31.640Z,63.91
2019-06-10T01:13:00.842Z,64.53
2019-06-10T01:15:31.100Z,64.83
2019-06-10T01:18:01.504Z,64.42
2019-06-10T01:20:29.903Z,64.18
2019-06-10T01:22:58.374Z,64.41
2019-06-10T01:25:31.069Z,64.05
2019-06-10T01:28:00.600Z,64.32
2019-06-10T01:30:34.892Z,64.05
2019-06-10T01:33:03.337Z,65.07
2019-06-10T01:35:31.754Z,65.24
2019-06-10T01:38:02.837Z,64.94
2019-06-10T01:40:32.267Z,65.34
2019-06-10T01:43:01.679Z,64.94
2019-06-10T01:45:31.221Z,66.18
2019-06-10T01:48:01.436Z,65.71
2019-06-10T01:50:34.912Z,65.46
2019-06-10T01:53:10.133Z,65.80
2019-06-10T01:55:41.468Z,66.15
2019-06-10T01:58:13.238Z,66.04
2019-06-10T02:00:42.178Z,66.32
2019-06-10T02:03:13.265Z,66.19
2019-06-10T02:05:41.915Z,66.52
2019-06-10T02:08:13.310Z,66.38
2019-06-10T02:10:41.718Z,66.71
2019-06-10T02:13:13.617Z,66.66
2019-06-10T02:15:42.859Z,66.49
2019-06-10T02:18:13.312Z,66.67
2019-06-10T02:20:43.809Z,67.04
2019-06-10T02:23:14.117Z,67.25
2019-06-10T02:25:44.909Z,67.02
2019-06-10T02:28:14.898Z,66.85
2019-06-10T02:30:50.924Z,67.11
2019-06-10T02:33:17.434Z,66.46
2019-06-10T02:35:48.839Z,66.92
2019-06-10T02:38:24.683Z,67.53
2019-06-10T02:40:49.316Z,67.76
2019-06-10T02:43:27.894Z,67.30
2019-06-10T02:45:49.498Z,67.54
2019-06-10T02:48:21.513Z,68.34
2019-06-10T02:50:54.703Z,67.31
2019-06-10T02:53:30.201Z,67.30
2019-06-10T02:55:54.135Z,66.82
2019-06-10T02:58:33.264Z,68.60
2019-06-10T03:01:04.596Z,67.99
2019-06-10T03:03:43.261Z,67.84
2019-06-10T03:06:08.193Z,67.78
2019-06-10T03:08:36.552Z,68.73
2019-06-10T03:11:09.128Z,68.20
2019-06-10T03:13:37.539Z,67.80
2019-06-10T03:16:10.361Z,67.66
2019-06-10T03:18:43.268Z,67.92
2019-06-10T03:21:12.376Z,68.03
2019-06-10T03:23:49.182Z,69.31
2019-06-10T03:26:23.634Z,67.87
2019-06-10T03:28:52.045Z,68.19
2019-06-10T03:31:22.280Z,69.56
2019-06-10T03:33:54.297Z,69.50
2019-06-10T03:36:23.115Z,68.57
2019-06-10T03:38:53.507Z,68.58
2019-06-10T03:41:23.295Z,71.08
2019-06-10T03:43:53.120Z,71.26
2019-06-10T03:46:23.778Z,71.34
2019-06-10T03:48:53.941Z,71.00
2019-06-10T03:51:24.336Z,71.79
2019-06-10T03:53:53.576Z,72.43
2019-06-10T03:56:25.459Z,72.52
2019-06-10T03:58:54.882Z,72.50
2019-06-10T04:01:30.118Z,72.53
2019-06-10T04:03:58.567Z,72.92
2019-06-10T04:06:29.538Z,72.81
2019-06-10T04:08:57.992Z,73.33
2019-06-10T04:11:27.384Z,73.12
2019-06-10T04:13:56.563Z,73.67
2019-06-10T04:16:26.686Z,72.84
2019-06-10T04:18:55.132Z,73.19
2019-06-10T04:21:25.444Z,72.71
2019-06-10T04:23:53.693Z,72.59
2019-06-10T04:26:25.763Z,73.05
2019-06-10T04:28:54.403Z,72.96
2019-06-10T04:31:23.738Z,72.26
2019-06-10T04:33:52.959Z,72.51
2019-06-10T04:36:24.446Z,73.00
2019-06-10T04:38:55.313Z,72.61
2019-06-10T04:41:29.142Z,72.72
2019-06-10T04:43:57.623Z,73.17
2019-06-10T04:46:26.790Z,73.19
2019-06-10T04:49:02.498Z,72.88
2019-06-10T04:51:33.969Z,73.69
2019-06-10T04:54:03.127Z,74.04
2019-06-10T04:56:33.421Z,74.44
2019-06-10T04:59:03.092Z,74.03
2019-06-10T05:01:33.552Z,74.09
2019-06-10T05:04:03.174Z,74.61
2019-06-10T05:06:32.805Z,75.36
2019-06-10T05:09:01.365Z,74.94
2019-06-10T05:11:30.855Z,74.91
2019-06-10T05:14:02.536Z,74.32
2019-06-10T05:16:32.387Z,75.02
2019-06-10T05:19:00.305Z,74.63
2019-06-10T05:21:29.775Z,75.30
2019-06-10T05:23:58.862Z,75.39
2019-06-10T05:26:28.793Z,75.99
2019-06-10T05:28:57.385Z,76.18
2019-06-10T05:31:28.554Z,76.45
2019-06-10T05:33:56.928Z,76.20
2019-06-10T05:36:30.137Z,76.40
2019-06-10T05:38:58.992Z,76.58
2019-06-10T05:41:28.956Z,77.30
2019-06-10T05:43:57.527Z,76.86
2019-06-10T05:46:27.270Z,77.12
2019-06-10T05:48:58.766Z,77.30
2019-06-10T05:51:27.881Z,77.66
2019-06-10T05:53:58.666Z,77.53
2019-06-10T05:56:29.570Z,77.23
2019-06-10T05:59:01.574Z,77.04
2019-06-10T06:01:37.965Z,76.89
2019-06-10T06:04:06.236Z,76.54
2019-06-10T06:06:35.438Z,76.07
2019-06-10T06:09:08.908Z,76.34
2019-06-10T06:11:38.426Z,76.15
2019-06-10T06:14:09.757Z,76.28
2019-06-10T06:16:38.367Z,76.33
2019-06-10T06:19:06.923Z,76.04
2019-06-10T06:21:42.768Z,76.41
2019-06-10T06:24:08.886Z,76.38
2019-06-10T06:26:43.058Z,76.35
2019-06-10T06:29:15.301Z,76.30
2019-06-10T06:31:46.838Z,76.22
2019-06-10T06:34:16.219Z,76.27
2019-06-10T06:36:52.691Z,76.50
2019-06-10T06:39:20.437Z,76.82
2019-06-10T06:42:04.417Z,76.59
2019-06-10T06:44:37.395Z,76.92
2019-06-10T06:47:04.054Z,76.08
2019-06-10T06:49:37.191Z,76.00
2019-06-10T06:52:12.657Z,76.06
2019-06-10T06:54:46.684Z,75.44
2019-06-10T06:57:18.770Z,75.35
2019-06-10T06:59:47.186Z,74.56
2019-06-10T07:02:15.598Z,75.07
2019-06-10T07:04:44.022Z,74.92
2019-06-10T07:07:17.833Z,75.57
2019-06-10T07:09:49.245Z,75.18
2019-06-10T07:12:19.161Z,75.10
2019-06-10T07:14:52.701Z,74.86
2019-06-10T07:17:23.585Z,74.83
2019-06-10T07:19:57.708Z,74.83
2019-06-10T07:22:26.205Z,75.55
2019-06-10T07:24:54.647Z,75.86
2019-06-10T07:27:24.744Z,74.22
2019-06-10T07:29:55.837Z,74.63
2019-06-10T07:32:24.323Z,73.70
2019-06-10T07:34:55.329Z,73.53
2019-06-10T07:37:24.008Z,74.20
2019-06-10T07:39:52.522Z,73.35
2019-06-10T07:42:22.716Z,73.17
2019-06-10T07:44:53.279Z,72.80
2019-06-10T07:47:23.111Z,72.95
2019-06-10T07:49:54.151Z,72.94
2019-06-10T07:52:34.356Z,72.05
2019-06-10T07:55:02.344Z,71.54
2019-06-10T07:57:29.971Z,71.36
2019-06-10T07:59:58.398Z,71.89
2019-06-10T08:02:26.841Z,71.48
2019-06-10T08:04:57.814Z,70.05
2019-06-10T08:07:33.492Z,70.81
2019-06-10T08:10:07.285Z,70.46
2019-06-10T08:12:41.217Z,69.47
2019-06-10T08:15:12.467Z,70.44
2019-06-10T08:17:44.466Z,69.95
2019-06-10T08:20:13.582Z,70.08
2019-06-10T08:22:57.452Z,70.35
2019-06-10T08:25:26.421Z,69.74
2019-06-10T08:28:03.128Z,69.59
2019-06-10T08:30:33.966Z,69.46
2019-06-10T08:33:03.396Z,68.92
2019-06-10T08:35:47.204Z,69.19
2019-06-10T08:38:09.441Z,68.00
2019-06-10T08:40:45.010Z,68.50
2019-06-10T08:43:16.705Z,68.46
2019-06-10T08:45:47.028Z,68.36
2019-06-10T08:48:19.206Z,69.50
2019-06-10T08:50:49.876Z,69.73
2019-06-10T08:53:22.706Z,70.29
2019-06-10T08:55:53.635Z,70.05
2019-06-10T08:58:23.079Z,70.48
2019-06-10T09:00:54.364Z,70.29
2019-06-10T09:03:26.288Z,70.78
2019-06-10T09:05:57.721Z,70.33
2019-06-10T09:08:25.517Z,69.76
2019-06-10T09:10:55.073Z,70.31
2019-06-10T09:13:23.943Z,69.35
2019-06-10T09:16:10.916Z,68.72
2019-06-10T09:18:29.073Z,68.40
2019-06-10T09:20:57.490Z,69.16
2019-06-10T09:23:25.979Z,68.61
2019-06-10T09:25:57.508Z,67.65
2019-06-10T09:28:25.832Z,68.31
2019-06-10T09:30:59.591Z,69.44
2019-06-10T09:33:33.102Z,68.47
2019-06-10T09:36:05.459Z,67.89
2019-06-10T09:38:36.930Z,67.89
2019-06-10T09:41:06.325Z,67.07
2019-06-10T09:43:34.918Z,65.96
2019-06-10T09:46:03.817Z,64.73
2019-06-10T09:48:35.986Z,63.21
2019-06-10T09:51:05.498Z,63.34
2019-06-10T09:53:42.366Z,63.16
2019-06-10T09:56:07.123Z,63.84
2019-06-10T09:58:46.093Z,62.98
2019-06-10T10:01:14.336Z,59.97
2019-06-10T10:03:47.947Z,61.68
2019-06-10T10:06:15.626Z,58.39
2019-06-10T10:08:45.987Z,59.43
2019-06-10T10:11:15.715Z,59.67
2019-06-10T10:13:47.380Z,60.21
2019-06-10T10:16:19.345Z,59.69
2019-06-10T10:18:52.117Z,61.86
2019-06-10T10:21:41.334Z,60.68
2019-06-10T10:24:07.094Z,57.41
2019-06-10T10:26:28.515Z,56.21
2019-06-10T10:28:59.035Z,58.22
2019-06-10T10:31:28.476Z,58.66
2019-06-10T10:33:56.900Z,59.13
2019-06-10T10:36:33.382Z,57.96
2019-06-10T10:39:02.495Z,54.15
2019-06-10T10:41:38.094Z,57.49
2019-06-10T10:44:06.452Z,58.56
2019-06-10T10:46:34.988Z,56.59
2019-06-10T10:49:13.066Z,56.62
2019-06-10T10:51:52.401Z,55.55
2019-06-10T10:54:32.800Z,55.79
2019-06-10T10:57:02.461Z,57.27
2019-06-10T10:59:34.083Z,56.14
2019-06-10T11:02:06.267Z,55.24
2019-06-10T11:04:35.001Z,55.82
2019-06-10T11:07:05.418Z,54.54
2019-06-10T11:09:42.476Z,53.14
2019-06-10T11:12:16.559Z,53.57
2019-06-10T11:14:49.266Z,55.94
2019-06-10T11:17:22.699Z,56.85
2019-06-10T11:19:53.700Z,55.92
2019-06-10T11:22:23.173Z,54.13
2019-06-10T11:24:54.398Z,55.67
2019-06-10T11:27:26.083Z,56.38
2019-06-10T11:29:57.418Z,56.58
2019-06-10T11:32:29.396Z,55.74
2019-06-10T11:35:02.940Z,56.94
2019-06-10T11:37:31.361Z,55.97
2019-06-10T11:40:04.441Z,55.89
2019-06-10T11:42:33.857Z,56.59
2019-06-10T11:45:02.937Z,58.50
2019-06-10T11:47:32.982Z,58.47
2019-06-10T11:50:03.518Z,57.17
2019-06-10T11:52:36.536Z,57.96
2019-06-10T11:55:15.158Z,56.39
2019-06-10T11:57:38.541Z,56.57
2019-06-10T12:00:13.937Z,56.52
2019-06-10T12:02:53.187Z,55.81
2019-06-10T12:05:16.484Z,55.01
2019-06-10T12:07:46.119Z,55.50
2019-06-10T12:10:17.218Z,55.36
2019-06-10T12:12:48.911Z,55.61
2019-06-10T12:15:22.775Z,55.81
2019-06-10T12:17:58.589Z,53.56
2019-06-10T12:20:28.551Z,53.16
2019-06-10T12:23:04.594Z,56.34
2019-06-10T12:25:39.863Z,56.16
2019-06-10T12:28:14.270Z,53.60
2019-06-10T12:30:46.769Z,52.82
2019-06-10T12:33:27.819Z,54.85
2019-06-10T12:36:00.294Z,55.10
2019-06-10T12:38:32.526Z,54.98
2019-06-10T12:41:14.208Z,55.99
2019-06-10T12:43:52.991Z,55.83
2019-06-10T12:46:23.454Z,56.09
2019-06-10T12:49:03.928Z,55.09
2019-06-10T12:51:32.724Z,52.45
2019-06-10T12:54:06.165Z,51.80
2019-06-10T12:56:34.593Z,54.65
2019-06-10T12:59:09.309Z,54.62
2019-06-10T13:01:36.658Z,54.25
2019-06-10T13:04:09.566Z,53.85
2019-06-10T13:06:46.072Z,53.22
2019-06-10T13:09:24.390Z,53.86
2019-06-10T13:11:57.864Z,55.09
2019-06-10T13:14:29.759Z,55.32
2019-06-10T13:17:03.054Z,54.59
2019-06-10T13:19:45.142Z,52.80
2019-06-10T13:22:23.092Z,54.97
2019-06-10T13:24:56.780Z,52.11
2019-06-10T13:27:31.924Z,51.71
2019-06-10T13:30:04.591Z,52.15
2019-06-10T13:32:36.673Z,54.71
2019-06-10T13:35:12.943Z,53.75
2019-06-10T13:37:48.594Z,53.89
2019-06-10T13:40:22.722Z,52.97
2019-06-10T13:43:12.312Z,52.91
2019-06-10T13:45:43.125Z,55.41
2019-06-10T13:48:15.673Z,54.48
2019-06-10T13:50:46.708Z,55.78
2019-06-10T13:53:16.395Z,58.43
2019-06-10T13:56:23.481Z,57.56
2019-06-10T13:58:33.096Z,55.93
2019-06-10T14:01:07.378Z,56.80
2019-06-10T14:03:43.030Z,54.52
2019-06-10T14:06:31.382Z,54.72
2019-06-10T14:08:43.084Z,54.51
2019-06-10T14:11:19.602Z,55.75
2019-06-10T14:13:52.628Z,57.47
2019-06-10T14:16:25.214Z,55.26
2019-06-10T14:18:54.225Z,55.95
2019-06-10T14:21:26.572Z,55.27
2019-06-10T14:23:54.473Z,56.40
2019-06-10T14:26:36.445Z,56.58
2019-06-10T14:28:58.151Z,57.53
2019-06-10T14:31:40.509Z,57.14
2019-06-10T14:34:04.296Z,55.67
2019-06-10T14:36:34.431Z,58.51
2019-06-10T14:39:04.047Z,57.04
2019-06-10T14:41:35.039Z,59.11
2019-06-10T14:44:04.555Z,56.13
2019-06-10T14:46:33.079Z,56.77
2019-06-10T14:49:02.455Z,58.51
2019-06-10T14:51:32.600Z,56.57
2019-06-10T14:54:03.102Z,58.36
2019-06-10T14:56:33.181Z,58.83
2019-06-10T14:59:05.365Z,59.92
2019-06-10T15:01:33.887Z,60.97
2019-06-10T15:04:02.969Z,59.37
2019-06-10T15:06:33.869Z,61.71
2019-06-10T15:09:02.852Z,60.89
2019-06-10T15:11:33.895Z,61.74
2019-06-10T15:14:04.044Z,60.06
2019-06-10T15:16:34.909Z,59.91
2019-06-10T15:19:14.608Z,58.61
2019-06-10T15:21:33.453Z,60.26
2019-06-10T15:24:02.967Z,59.10
2019-06-10T15:26:36.237Z,59.31
2019-06-10T15:29:11.873Z,57.84
2019-06-10T15:31:43.817Z,60.01
2019-06-10T15:34:23.585Z,59.56
2019-06-10T15:36:59.641Z,59.35
2019-06-10T15:39:36.108Z,59.29
2019-06-10T15:42:09.448Z,59.72
2019-06-10T15:45:03.856Z,60.95
2019-06-10T15:47:36.049Z,61.05
2019-06-10T15:50:05.899Z,58.53
2019-06-10T15:52:52.373Z,61.50
2019-06-10T15:55:47.713Z,59.87
2019-06-10T15:57:54.307Z,59.83
2019-06-10T16:00:29.169Z,59.66
2019-06-10T16:03:03.146Z,61.94
2019-06-10T16:05:34.649Z,62.07
2019-06-10T16:08:04.119Z,61.74
2019-06-10T16:10:32.838Z,61.12
2019-06-10T16:13:12.499Z,61.92
2019-06-10T16:15:43.271Z,60.04
2019-06-10T16:18:27.217Z,61.23
2019-06-10T16:20:57.984Z,61.68
2019-06-10T16:23:27.035Z,60.67
2019-06-10T16:26:03.246Z,61.05
2019-06-10T16:28:32.943Z,60.30
2019-06-10T16:31:07.449Z,60.62
2019-06-10T16:33:49.356Z,61.55
2019-06-10T16:36:17.283Z,62.82
2019-06-10T16:38:56.060Z,63.61
2019-06-10T16:41:28.472Z,61.20
2019-06-10T16:44:03.007Z,63.20
2019-06-10T16:46:32.637Z,63.10
2019-06-10T16:49:03.274Z,62.96
2019-06-10T16:51:31.339Z,63.06
2019-06-10T16:54:02.269Z,62.92
2019-06-10T16:59:25.552Z,64.14
2019-06-10T17:02:02.123Z,63.70
2019-06-10T17:04:36.597Z,64.39
2019-06-10T17:07:07.201Z,63.28
2019-06-10T17:09:39.390Z,64.68
2019-06-10T17:12:07.509Z,65.66
2019-06-10T17:14:38.074Z,65.86
2019-06-10T17:17:18.606Z,66.11
2019-06-10T17:19:51.967Z,66.14
2019-06-10T17:22:28.702Z,65.56
2019-06-10T17:24:59.723Z,66.86
2019-06-10T17:27:32.726Z,67.54
2019-06-10T17:30:08.870Z,68.42
2019-06-10T17:32:37.437Z,68.47
2019-06-10T17:35:14.280Z,68.71
2019-06-10T17:37:43.169Z,69.27
2019-06-10T17:40:12.951Z,69.57
2019-06-10T17:42:48.906Z,69.23
2019-06-10T17:45:24.497Z,70.23
2019-06-10T17:47:53.841Z,70.59
2019-06-10T17:50:24.965Z,70.22
2019-06-10T17:52:55.603Z,69.66
2019-06-10T17:55:28.167Z,70.32
2019-06-10T17:57:56.981Z,70.01
2019-06-10T18:00:36.087Z,71.06
2019-06-10T18:03:29.362Z,71.13
2019-06-10T18:06:09.774Z,71.37
2019-06-10T18:08:46.883Z,71.48
2019-06-10T18:11:18.585Z,71.10
2019-06-10T18:13:47.001Z,70.88
2019-06-10T18:16:22.419Z,70.81
2019-06-10T18:18:57.053Z,71.51
2019-06-10T18:21:28.421Z,72.15
2019-06-10T18:24:08.093Z,71.62
2019-06-10T18:26:37.799Z,71.69
2019-06-10T18:29:09.351Z,71.44
2019-06-10T18:31:42.767Z,71.49
2019-06-10T18:34:13.190Z,72.02
2019-06-10T18:36:42.730Z,71.76
2019-06-10T18:39:14.020Z,72.18
2019-06-10T18:41:46.930Z,71.93
2019-06-10T18:44:23.042Z,71.41
2019-06-10T18:46:50.437Z,72.44
2019-06-10T18:49:18.876Z,72.52
2019-06-10T18:51:49.644Z,72.92
2019-06-10T18:54:22.531Z,72.43
2019-06-10T18:56:52.576Z,72.88
2019-06-10T18:59:21.516Z,73.46
2019-06-10T19:01:52.860Z,74.04
2019-06-10T19:04:22.480Z,73.19
2019-06-10T19:07:02.953Z,73.70
2019-06-10T19:09:36.388Z,74.03
2019-06-10T19:12:07.684Z,74.33
2019-06-10T19:14:37.079Z,74.17
2019-06-10T19:17:06.251Z,74.33
2019-06-10T19:19:36.025Z,74.31
2019-06-10T19:22:09.004Z,74.36
2019-06-10T19:24:36.727Z,74.41
2019-06-10T19:27:06.261Z,74.78
2019-06-10T19:29:44.328Z,75.09
2019-06-10T19:32:06.933Z,75.34
2019-06-10T19:34:35.419Z,75.87
2019-06-10T19:37:04.035Z,75.18
2019-06-10T19:39:40.248Z,75.59
2019-06-10T19:42:05.096Z,75.69
2019-06-10T19:44:37.094Z,75.65
2019-06-10T19:47:05.702Z,76.30
2019-06-10T19:49:35.322Z,76.35
2019-06-10T19:52:07.713Z,76.23
2019-06-10T19:54:37.003Z,76.50
2019-06-10T19:57:06.463Z,76.35
2019-06-10T20:00:02.778Z,76.25
2019-06-10T20:02:16.671Z,76.45
2019-06-10T20:04:53.117Z,75.91
2019-06-10T20:07:26.231Z,75.96
2019-06-10T20:09:54.822Z,76.88
2019-06-10T20:12:23.244Z,76.54
2019-06-10T20:14:52.867Z,76.89
2019-06-10T20:17:32.768Z,76.81
2019-06-10T20:20:03.554Z,76.56
2019-06-10T20:22:32.125Z,76.58
2019-06-10T20:25:00.617Z,76.83
2019-06-10T20:27:33.070Z,76.84
2019-06-10T20:30:10.131Z,77.04
2019-06-10T20:32:34.087Z,76.31
2019-06-10T20:35:05.065Z,77.29
2019-06-10T20:37:33.486Z,76.59
2019-06-10T20:40:03.581Z,76.77
2019-06-10T20:42:33.374Z,76.74
2019-06-10T20:45:02.777Z,76.79
2019-06-10T20:47:37.617Z,77.12
2019-06-10T20:50:09.582Z,76.45
2019-06-10T20:52:38.007Z,76.03
2019-06-10T20:55:12.717Z,76.32
2019-06-10T20:57:52.119Z,76.43
2019-06-10T21:00:22.385Z,76.42
2019-06-10T21:02:49.012Z,76.06
2019-06-10T21:05:18.806Z,76.20
2019-06-10T21:07:52.205Z,76.62
2019-06-10T21:10:26.981Z,76.41
2019-06-10T21:12:57.367Z,76.58
2019-06-10T21:15:25.783Z,77.13
2019-06-10T21:18:01.340Z,76.95
2019-06-10T21:20:33.153Z,76.70
2019-06-10T21:23:03.104Z,76.74
2019-06-10T21:25:32.634Z,76.60
2019-06-10T21:28:03.230Z,77.29
2019-06-10T21:30:41.300Z,78.02
2019-06-10T21:33:03.604Z,78.55
2019-06-10T21:35:34.385Z,77.62
2019-06-10T21:38:04.345Z,77.50
2019-06-10T21:40:33.273Z,77.43
2019-06-10T21:43:04.596Z,78.53
2019-06-10T21:45:35.682Z,79.18
2019-06-10T21:48:04.214Z,79.26
2019-06-10T21:50:36.088Z,79.60
2019-06-10T21:53:04.743Z,79.52
2019-06-10T21:55:33.419Z,78.73
2019-06-10T21:58:03.712Z,79.11
2019-06-10T22:00:52.805Z,78.85
2019-06-10T22:03:15.504Z,78.56
2019-06-10T22:05:49.551Z,78.73
2019-06-10T22:08:20.048Z,79.39
2019-06-10T22:11:02.505Z,79.71
2019-06-10T22:13:32.866Z,79.16
2019-06-10T22:16:03.219Z,80.05
2019-06-10T22:18:35.281Z,80.13
2019-06-10T22:21:03.859Z,80.67
2019-06-10T22:23:33.067Z,80.67
2019-06-10T22:26:05.687Z,81.69
2019-06-10T22:28:34.473Z,81.14
2019-06-10T22:31:19.076Z,81.45
2019-06-10T22:33:43.144Z,82.41
2019-06-10T22:36:13.039Z,82.37
2019-06-10T22:38:42.393Z,82.19
2019-06-10T22:41:12.275Z,82.09
2019-06-10T22:43:42.688Z,82.60
2019-06-10T22:46:13.610Z,82.12
2019-06-10T22:48:49.397Z,82.12
2019-06-10T22:51:18.924Z,81.88
2019-06-10T22:53:48.416Z,82.10
2019-06-10T22:56:19.466Z,82.31
2019-06-10T22:58:47.907Z,82.14
2019-06-10T23:01:31.742Z,82.06
2019-06-10T23:03:54.174Z,81.97
2019-06-10T23:06:23.206Z,81.98
2019-06-10T23:08:54.685Z,81.97
2019-06-10T23:11:29.169Z,82.14
2019-06-10T23:14:03.036Z,81.91
2019-06-10T23:16:30.637Z,81.57
2019-06-10T23:19:03.831Z,81.30
2019-06-10T23:21:33.772Z,81.79
2019-06-10T23:24:03.375Z,81.23
2019-06-10T23:26:35.465Z,81.17
2019-06-10T23:29:03.906Z,82.04
2019-06-10T23:31:49.629Z,81.94
2019-06-10T23:34:06.695Z,82.64
2019-06-10T23:36:37.141Z,82.69
2019-06-10T23:39:07.430Z,82.76
2019-06-10T23:41:35.871Z,82.27
2019-06-10T23:44:04.631Z,82.58
2019-06-10T23:46:38.137Z,83.03
2019-06-10T23:49:06.634Z,83.30
2019-06-10T23:51:38.561Z,83.41
2019-06-10T23:54:08.127Z,82.98
2019-06-10T23:56:42.841Z,83.55
2019-06-10T23:59:17.653Z,83.69
